Time;durP1;ratioP1;P1;durP2;ratioP2;P2;SDS_P1;SDS_P2;PMS_P1;PMS_P2;Temp;Humidity;BMP_temperature;BMP_pressure;BME280_temperature;BME280_humidity;BME280_pressure;Samples;Min_cycle;Max_cycle;Signal;HPM_P1;HPM_P2
2021/10/13 00:02:39;;;;;;;1.02;0.50;;;;;;;;;;10329929;28;20104;-56
2021/10/13 00:07:41;;;;;;;4.32;0.60;;;;;;;;;;10313507;28;20100;-56
2021/10/13 00:12:43;;;;;;;3.63;0.80;;;;;;;;;;10329990;28;20132;-56
2021/10/13 00:17:45;;;;;;;3.60;0.93;;;;;;;;;;10331608;28;20109;-56
2021/10/13 00:22:47;;;;;;;1.40;1.08;;;;;;;;;;10332209;28;20046;-57
2021/10/13 00:27:50;;;;;;;2.78;0.80;;;;;;;;;;10319636;28;20100;-56
2021/10/13 00:32:52;;;;;;;3.80;1.02;;;;;;;;;;10328951;28;20108;-56
2021/10/13 00:37:54;;;;;;;4.65;0.60;;;;;;;;;;10327414;28;20146;-56
2021/10/13 00:42:56;;;;;;;2.03;0.60;;;;;;;;;;10329704;28;20054;-56
2021/10/13 00:47:58;;;;;;;4.00;0.55;;;;;;;;;;10330184;28;20066;-56
2021/10/13 00:53:00;;;;;;;4.65;0.90;;;;;;;;;;10333303;28;20133;-57
2021/10/13 00:58:02;;;;;;;5.75;0.98;;;;;;;;;;10329237;28;20077;-56
2021/10/13 01:03:07;;;;;;;3.90;0.80;;;;;;;;;;10320112;28;20123;-56
2021/10/13 01:08:19;;;;;;;1.42;0.70;;;;;;;;;;10311068;28;20050;-56
2021/10/13 01:13:24;;;;;;;4.68;0.90;;;;;;;;;;10330262;28;20069;-56
2021/10/13 01:18:38;;;;;;;2.63;0.98;;;;;;;;;;10328943;28;20078;-56
2021/10/13 01:24:04;;;;;;;2.38;1.00;;;;;;;;;;10323337;28;20104;-56
2021/10/13 01:29:10;;;;;;;4.60;0.60;;;;;;;;;;10325291;28;20113;-56
2021/10/13 01:34:16;;;;;;;3.17;0.80;;;;;;;;;;10324361;28;20062;-58
2021/10/13 01:39:18;;;;;;;1.55;0.60;;;;;;;;;;10325299;28;20057;-58
2021/10/13 01:44:21;;;;;;;5.47;0.98;;;;;;;;;;10326973;28;20136;-57
2021/10/13 01:49:24;;;;;;;2.25;0.80;;;;;;;;;;10319591;28;20108;-55
2021/10/13 01:54:26;;;;;;;7.15;0.82;;;;;;;;;;10326332;28;20049;-55
2021/10/13 01:59:29;;;;;;;6.60;1.10;;;;;;;;;;10323598;28;20050;-58
2021/10/13 02:04:31;;;;;;;4.25;1.45;;;;;;;;;;10327500;28;20049;-56
2021/10/13 02:09:34;;;;;;;4.30;1.00;;;;;;;;;;10336686;28;20139;-55
2021/10/13 02:14:40;;;;;;;7.55;1.02;;;;;;;;;;10337412;28;20077;-56
2021/10/13 02:19:43;;;;;;;6.30;1.25;;;;;;;;;;10342978;28;20148;-55
2021/10/13 02:24:47;;;;;;;6.68;1.08;;;;;;;;;;10339010;28;20131;-55
2021/10/13 02:29:49;;;;;;;3.10;0.90;;;;;;;;;;10338502;28;20081;-55
2021/10/13 02:34:52;;;;;;;3.15;0.90;;;;;;;;;;10338890;28;20054;-55
2021/10/13 02:39:54;;;;;;;4.30;2.35;;;;;;;;;;10338449;28;20073;-56
2021/10/13 02:44:56;;;;;;;2.45;1.10;;;;;;;;;;10341520;28;20101;-55
2021/10/13 02:50:17;;;;;;;2.50;1.10;;;;;;;;;;10337436;28;20085;-56
2021/10/13 02:55:20;;;;;;;5.80;1.10;;;;;;;;;;10340058;28;20111;-56
2021/10/13 03:00:22;;;;;;;2.40;1.00;;;;;;;;;;10343087;28;20128;-56
2021/10/13 03:05:25;;;;;;;4.07;0.85;;;;;;;;;;10340373;28;20664;-56
2021/10/13 03:10:28;;;;;;;5.10;1.40;;;;;;;;;;10341130;28;20073;-56
2021/10/13 03:15:31;;;;;;;4.35;1.75;;;;;;;;;;10335103;28;20083;-55
2021/10/13 03:20:33;;;;;;;8.38;2.10;;;;;;;;;;10332431;28;20093;-55
2021/10/13 03:25:35;;;;;;;8.50;1.70;;;;;;;;;;10323333;28;20417;-55
2021/10/13 03:30:37;;;;;;;4.70;1.30;;;;;;;;;;10329881;28;20138;-56
2021/10/13 03:35:40;;;;;;;4.93;2.30;;;;;;;;;;10330508;28;20077;-56
2021/10/13 03:40:42;;;;;;;5.32;1.75;;;;;;;;;;10332344;28;20144;-55
2021/10/13 03:45:44;;;;;;;7.20;1.13;;;;;;;;;;10332091;28;20073;-57
2021/10/13 03:50:46;;;;;;;5.75;1.65;;;;;;;;;;10325177;28;20054;-56
2021/10/13 03:55:48;;;;;;;8.20;2.10;;;;;;;;;;10327347;28;20125;-57
2021/10/13 04:00:50;;;;;;;5.82;1.73;;;;;;;;;;10332617;28;20073;-55
2021/10/13 04:05:52;;;;;;;4.95;1.40;;;;;;;;;;10332893;28;20064;-56
2021/10/13 04:10:57;;;;;;;5.82;1.80;;;;;;;;;;10327474;28;20579;-57
2021/10/13 04:16:00;;;;;;;6.82;1.90;;;;;;;;;;10328284;28;20089;-56
2021/10/13 04:21:02;;;;;;;3.92;2.10;;;;;;;;;;10328971;28;20523;-56
2021/10/13 04:26:04;;;;;;;9.00;3.83;;;;;;;;;;10328663;28;20107;-57
2021/10/13 04:31:06;;;;;;;5.22;2.55;;;;;;;;;;10326161;28;20160;-57
2021/10/13 04:36:09;;;;;;;7.50;2.58;;;;;;;;;;10329514;28;20090;-59
2021/10/13 04:41:11;;;;;;;5.20;2.67;;;;;;;;;;10328058;28;20088;-59
2021/10/13 04:46:13;;;;;;;8.40;2.70;;;;;;;;;;10330456;28;20155;-57
2021/10/13 04:51:15;;;;;;;6.50;2.38;;;;;;;;;;10326872;28;20385;-55
2021/10/13 04:56:17;;;;;;;6.32;2.22;;;;;;;;;;10330034;28;20077;-55
2021/10/13 05:01:19;;;;;;;10.55;2.55;;;;;;;;;;10324510;28;20444;-55
2021/10/13 05:06:22;;;;;;;5.43;2.33;;;;;;;;;;10328151;28;20053;-58
2021/10/13 05:11:24;;;;;;;5.40;2.58;;;;;;;;;;10325933;28;20121;-55
2021/10/13 05:16:26;;;;;;;6.18;2.47;;;;;;;;;;10326397;28;20072;-55
2021/10/13 05:21:28;;;;;;;8.13;2.53;;;;;;;;;;10328334;28;20526;-55
2021/10/13 05:26:30;;;;;;;7.03;2.67;;;;;;;;;;10327023;28;20077;-55
2021/10/13 05:31:33;;;;;;;8.60;2.60;;;;;;;;;;10310993;28;21340;-57
2021/10/13 05:36:35;;;;;;;7.93;3.28;;;;;;;;;;10314786;28;20053;-55
2021/10/13 05:41:37;;;;;;;10.38;3.42;;;;;;;;;;10332991;28;20121;-55
2021/10/13 05:46:39;;;;;;;7.75;2.78;;;;;;;;;;10331944;28;20129;-56
2021/10/13 05:51:41;;;;;;;6.32;3.08;;;;;;;;;;10330044;28;20057;-57
2021/10/13 05:56:44;;;;;;;10.95;2.90;;;;;;;;;;10328062;28;20057;-56
2021/10/13 06:01:46;;;;;;;8.50;3.55;;;;;;;;;;10325293;28;20468;-56
2021/10/13 06:06:48;;;;;;;7.25;4.28;;;;;;;;;;10326498;28;20659;-57
2021/10/13 06:11:50;;;;;;;7.72;3.72;;;;;;;;;;10327434;28;20046;-56
2021/10/13 06:16:52;;;;;;;12.50;3.50;;;;;;;;;;10306314;28;20513;-57
2021/10/13 06:21:54;;;;;;;5.65;2.90;;;;;;;;;;10326642;28;20143;-56
2021/10/13 06:26:56;;;;;;;8.65;2.90;;;;;;;;;;10328381;28;20054;-56
2021/10/13 06:31:58;;;;;;;8.93;3.50;;;;;;;;;;10327134;28;20090;-56
2021/10/13 06:37:00;;;;;;;7.28;2.97;;;;;;;;;;10322650;28;20639;-56
2021/10/13 06:42:03;;;;;;;9.20;4.35;;;;;;;;;;10326373;28;20070;-56
2021/10/13 06:47:05;;;;;;;7.85;3.20;;;;;;;;;;10322389;28;20140;-57
2021/10/13 06:52:07;;;;;;;7.43;4.28;;;;;;;;;;10332123;28;20475;-56
2021/10/13 06:57:09;;;;;;;10.68;4.18;;;;;;;;;;10330071;28;20134;-56
2021/10/13 07:02:11;;;;;;;14.35;4.95;;;;;;;;;;10336150;28;20069;-56
2021/10/13 07:07:13;;;;;;;13.43;5.10;;;;;;;;;;10331723;28;20157;-57
2021/10/13 07:12:15;;;;;;;12.25;5.70;;;;;;;;;;10330282;28;20054;-57
2021/10/13 07:17:18;;;;;;;14.55;5.72;;;;;;;;;;10332495;28;20046;-57
2021/10/13 07:22:20;;;;;;;11.52;5.95;;;;;;;;;;10333921;28;20136;-56
2021/10/13 07:27:22;;;;;;;17.40;6.97;;;;;;;;;;10334406;28;20052;-57
2021/10/13 07:32:35;;;;;;;10.63;6.40;;;;;;;;;;10334438;28;20053;-57
2021/10/13 07:37:53;;;;;;;14.70;6.20;;;;;;;;;;10339858;28;20188;-57
2021/10/13 07:42:55;;;;;;;13.75;6.18;;;;;;;;;;10336666;28;20044;-57
2021/10/13 07:47:58;;;;;;;9.55;5.20;;;;;;;;;;10333257;28;20067;-57
2021/10/13 07:53:00;;;;;;;7.97;4.68;;;;;;;;;;10319093;28;20124;-57
2021/10/13 07:58:02;;;;;;;4.63;1.33;;;;;;;;;;10328684;28;20056;-57
2021/10/13 08:03:04;;;;;;;2.17;0.93;;;;;;;;;;10332937;28;20082;-57
2021/10/13 08:08:06;;;;;;;7.60;1.33;;;;;;;;;;10327052;28;20052;-56
2021/10/13 08:13:08;;;;;;;2.55;0.90;;;;;;;;;;10318850;28;20090;-56
2021/10/13 08:18:11;;;;;;;3.25;1.27;;;;;;;;;;10333985;28;20385;-56
2021/10/13 08:23:13;;;;;;;3.60;0.95;;;;;;;;;;10325953;28;20050;-56
2021/10/13 08:28:16;;;;;;;5.15;0.93;;;;;;;;;;10330369;28;20061;-56
2021/10/13 08:33:18;;;;;;;2.10;0.63;;;;;;;;;;10330518;28;20100;-56
2021/10/13 08:38:20;;;;;;;2.25;0.93;;;;;;;;;;10330219;28;20089;-56
2021/10/13 08:43:23;;;;;;;3.47;0.70;;;;;;;;;;10324526;28;20046;-56
2021/10/13 08:48:25;;;;;;;2.25;0.60;;;;;;;;;;10328338;28;20160;-56
2021/10/13 08:53:27;;;;;;;7.68;0.80;;;;;;;;;;10328893;28;20069;-56
2021/10/13 08:58:29;;;;;;;3.03;1.02;;;;;;;;;;10333116;28;21202;-56
2021/10/13 09:03:32;;;;;;;1.58;0.70;;;;;;;;;;10325852;28;20199;-56
2021/10/13 09:08:35;;;;;;;1.30;0.70;;;;;;;;;;10329564;28;20038;-56
2021/10/13 09:13:37;;;;;;;1.17;0.75;;;;;;;;;;10331859;28;20042;-56
2021/10/13 09:18:39;;;;;;;2.10;0.60;;;;;;;;;;10326750;28;20550;-56
2021/10/13 09:23:41;;;;;;;1.92;0.80;;;;;;;;;;10332428;28;20123;-56
2021/10/13 09:28:57;;;;;;;4.20;0.73;;;;;;;;;;10328686;28;20107;-56
2021/10/13 09:34:00;;;;;;;1.88;0.70;;;;;;;;;;10329636;28;20062;-57
2021/10/13 09:39:20;;;;;;;2.03;0.80;;;;;;;;;;10334865;28;20104;-56
2021/10/13 09:44:23;;;;;;;2.45;0.70;;;;;;;;;;10327393;28;20046;-56
2021/10/13 09:49:26;;;;;;;2.92;0.50;;;;;;;;;;10329321;28;20054;-56
2021/10/13 09:54:29;;;;;;;1.70;0.73;;;;;;;;;;10330764;28;20100;-57
2021/10/13 09:59:31;;;;;;;4.30;0.90;;;;;;;;;;10328940;28;20528;-56
2021/10/13 10:04:34;;;;;;;1.88;0.70;;;;;;;;;;10326645;28;20046;-56
2021/10/13 10:09:36;;;;;;;1.38;0.60;;;;;;;;;;10326346;28;20077;-58
2021/10/13 10:14:41;;;;;;;3.88;1.02;;;;;;;;;;10329459;28;20108;-56
2021/10/13 10:19:44;;;;;;;2.15;1.38;;;;;;;;;;10307850;28;20108;-56
2021/10/13 10:24:51;;;;;;;2.40;0.85;;;;;;;;;;10327983;28;20161;-56
2021/10/13 10:30:13;;;;;;;4.90;0.80;;;;;;;;;;10334439;28;20139;-58
2021/10/13 10:35:16;;;;;;;1.63;0.70;;;;;;;;;;10332051;28;20570;-57
2021/10/13 10:40:35;;;;;;;4.50;0.88;;;;;;;;;;10333086;28;20041;-56
2021/10/13 10:45:48;;;;;;;3.63;0.98;;;;;;;;;;10336278;28;20116;-56
2021/10/13 10:50:53;;;;;;;2.75;0.93;;;;;;;;;;10334168;28;20041;-56
2021/10/13 10:55:57;;;;;;;3.83;1.08;;;;;;;;;;10343353;28;20042;-57
2021/10/13 11:01:04;;;;;;;2.83;1.15;;;;;;;;;;10364974;28;20053;-57
2021/10/13 11:06:17;;;;;;;5.55;1.27;;;;;;;;;;10352741;28;20444;-57
2021/10/13 11:11:20;;;;;;;2.70;1.38;;;;;;;;;;10334233;28;20108;-56
2021/10/13 11:16:22;;;;;;;6.13;1.35;;;;;;;;;;10335861;28;20089;-56
2021/10/13 11:21:24;;;;;;;2.97;1.48;;;;;;;;;;10330071;28;20050;-57
2021/10/13 11:26:27;;;;;;;5.78;1.75;;;;;;;;;;10334211;28;20104;-56
2021/10/13 11:31:29;;;;;;;3.53;0.95;;;;;;;;;;10334134;28;20057;-56
2021/10/13 11:36:31;;;;;;;4.97;0.95;;;;;;;;;;10333579;28;20136;-56
2021/10/13 11:41:33;;;;;;;2.15;1.00;;;;;;;;;;10329685;28;20078;-57
2021/10/13 11:46:40;;;;;;;3.33;0.75;;;;;;;;;;10333152;28;20077;-58
2021/10/13 11:51:42;;;;;;;3.13;1.20;;;;;;;;;;10332174;28;20113;-57
2021/10/13 11:56:48;;;;;;;4.97;1.13;;;;;;;;;;10328531;28;20050;-57
2021/10/13 12:01:50;;;;;;;2.00;0.40;;;;;;;;;;10318325;28;20077;-58
2021/10/13 12:06:52;;;;;;;2.40;0.65;;;;;;;;;;10328385;28;20057;-58
2021/10/13 12:11:54;;;;;;;2.17;0.30;;;;;;;;;;10333416;28;20427;-57
2021/10/13 12:16:56;;;;;;;0.88;0.20;;;;;;;;;;10332126;28;20547;-57
2021/10/13 12:22:00;;;;;;;2.00;0.50;;;;;;;;;;10328360;28;20057;-57
2021/10/13 12:27:02;;;;;;;2.53;0.30;;;;;;;;;;10326675;28;20057;-59
2021/10/13 12:32:17;;;;;;;1.00;0.40;;;;;;;;;;10331575;28;20145;-57
2021/10/13 12:37:23;;;;;;;1.75;0.40;;;;;;;;;;10330188;28;20046;-59
2021/10/13 12:42:25;;;;;;;3.08;0.50;;;;;;;;;;10309796;28;20050;-58
2021/10/13 12:47:27;;;;;;;4.70;1.05;;;;;;;;;;10329298;28;20073;-58
2021/10/13 12:52:30;;;;;;;4.55;0.88;;;;;;;;;;10328542;28;20073;-58
2021/10/13 12:57:32;;;;;;;3.42;1.17;;;;;;;;;;10327678;28;20069;-58
2021/10/13 13:02:34;;;;;;;5.22;1.45;;;;;;;;;;10321661;28;20136;-58
2021/10/13 13:07:37;;;;;;;5.80;1.63;;;;;;;;;;10329454;28;20139;-58
2021/10/13 13:12:39;;;;;;;5.60;1.58;;;;;;;;;;10329155;28;20057;-58
2021/10/13 13:17:41;;;;;;;3.20;0.93;;;;;;;;;;10323051;28;20046;-58
2021/10/13 13:22:43;;;;;;;4.28;1.10;;;;;;;;;;10327063;28;20050;-58
2021/10/13 13:27:46;;;;;;;3.30;1.20;;;;;;;;;;10326832;28;20095;-57
2021/10/13 13:32:48;;;;;;;5.30;2.45;;;;;;;;;;10335066;28;20092;-58
2021/10/13 13:37:50;;;;;;;5.68;1.58;;;;;;;;;;10332934;28;20061;-58
2021/10/13 13:42:52;;;;;;;3.78;1.77;;;;;;;;;;10323824;28;20128;-59
2021/10/13 13:47:55;;;;;;;9.63;2.72;;;;;;;;;;10310696;28;20063;-59
2021/10/13 13:52:57;;;;;;;6.80;2.15;;;;;;;;;;10312900;28;20635;-58
2021/10/13 13:58:00;;;;;;;3.85;2.40;;;;;;;;;;10307892;28;20493;-58
2021/10/13 14:03:02;;;;;;;6.45;2.08;;;;;;;;;;10326131;28;20061;-58
2021/10/13 14:08:05;;;;;;;7.32;2.00;;;;;;;;;;10326183;28;20041;-58
2021/10/13 14:13:22;;;;;;;4.55;1.85;;;;;;;;;;10326673;28;20042;-57
2021/10/13 14:18:24;;;;;;;3.55;1.50;;;;;;;;;;10324955;28;20101;-58
2021/10/13 14:23:27;;;;;;;5.18;1.85;;;;;;;;;;10322808;28;20689;-59
2021/10/13 14:28:29;;;;;;;6.95;2.85;;;;;;;;;;10325747;28;20054;-59
2021/10/13 14:33:31;;;;;;;5.90;1.70;;;;;;;;;;10324689;28;20050;-59
2021/10/13 14:38:33;;;;;;;6.78;1.83;;;;;;;;;;10325389;28;20050;-59
2021/10/13 14:43:36;;;;;;;5.97;1.63;;;;;;;;;;10308083;28;20555;-59
2021/10/13 14:48:38;;;;;;;4.68;1.35;;;;;;;;;;10321329;28;20046;-58
2021/10/13 14:53:41;;;;;;;4.32;1.20;;;;;;;;;;10294931;28;20073;-58
2021/10/13 14:58:43;;;;;;;4.68;1.50;;;;;;;;;;10321536;28;20048;-59
2021/10/13 15:03:45;;;;;;;2.85;1.33;;;;;;;;;;10323905;28;20596;-59
2021/10/13 15:08:47;;;;;;;3.17;1.23;;;;;;;;;;10309539;28;20129;-59
2021/10/13 15:13:49;;;;;;;3.83;1.15;;;;;;;;;;10328014;28;20049;-58
2021/10/13 15:18:54;;;;;;;3.67;1.00;;;;;;;;;;10325605;28;20791;-59
2021/10/13 15:23:57;;;;;;;4.85;1.35;;;;;;;;;;10331066;28;20054;-58
2021/10/13 15:28:59;;;;;;;4.80;1.65;;;;;;;;;;10329211;28;20501;-59
2021/10/13 15:34:02;;;;;;;5.47;1.17;;;;;;;;;;10325204;28;20188;-59
2021/10/13 15:39:04;;;;;;;5.75;1.65;;;;;;;;;;10330490;28;20124;-58
2021/10/13 15:44:06;;;;;;;4.70;1.40;;;;;;;;;;10325171;28;20046;-57
2021/10/13 15:49:08;;;;;;;8.77;1.50;;;;;;;;;;10332649;28;20184;-57
2021/10/13 15:54:11;;;;;;;4.97;1.55;;;;;;;;;;10330947;28;20057;-58
2021/10/13 15:59:13;;;;;;;2.45;1.30;;;;;;;;;;10336419;28;20081;-57
2021/10/13 16:04:15;;;;;;;3.85;2.22;;;;;;;;;;10311466;28;20050;-57
2021/10/13 16:09:17;;;;;;;6.25;1.52;;;;;;;;;;10330029;28;20046;-57
2021/10/13 16:14:22;;;;;;;6.28;1.85;;;;;;;;;;10330747;28;20060;-57
2021/10/13 16:19:25;;;;;;;6.80;2.45;;;;;;;;;;10331401;28;20054;-58
2021/10/13 16:24:27;;;;;;;4.15;1.90;;;;;;;;;;10329288;28;20065;-57
2021/10/13 16:29:29;;;;;;;6.75;1.77;;;;;;;;;;10330313;28;20535;-57
2021/10/13 16:34:34;;;;;;;7.22;2.22;;;;;;;;;;10328285;28;20105;-58
2021/10/13 16:39:36;;;;;;;7.03;2.00;;;;;;;;;;10322389;28;20558;-58
2021/10/13 16:44:38;;;;;;;6.18;2.17;;;;;;;;;;10329197;28;20138;-57
2021/10/13 16:49:40;;;;;;;9.13;2.50;;;;;;;;;;10323713;28;20070;-57
2021/10/13 16:54:42;;;;;;;5.55;1.98;;;;;;;;;;10326293;28;20046;-58
2021/10/13 16:59:44;;;;;;;14.75;4.50;;;;;;;;;;10328022;28;20077;-59
2021/10/13 17:04:46;;;;;;;9.32;4.85;;;;;;;;;;10326378;28;20127;-57
2021/10/13 17:09:48;;;;;;;11.75;5.07;;;;;;;;;;10335981;28;20073;-61
2021/10/13 17:14:51;;;;;;;13.23;5.03;;;;;;;;;;10330183;28;20128;-57
2021/10/13 17:19:53;;;;;;;8.23;3.47;;;;;;;;;;10327349;28;20054;-57
2021/10/13 17:24:57;;;;;;;7.63;3.10;;;;;;;;;;10321909;28;20054;-61
2021/10/13 17:30:00;;;;;;;7.28;2.90;;;;;;;;;;10314953;28;20050;-60
2021/10/13 17:35:02;;;;;;;8.13;3.00;;;;;;;;;;10311418;28;20057;-64
2021/10/13 17:40:08;;;;;;;7.78;3.60;;;;;;;;;;10323831;28;20042;-61
2021/10/13 17:45:11;;;;;;;9.18;3.10;;;;;;;;;;10320023;28;20050;-62
2021/10/13 17:50:14;;;;;;;11.50;2.60;;;;;;;;;;10321998;28;20466;-60
2021/10/13 17:55:16;;;;;;;6.82;3.30;;;;;;;;;;10310172;28;20761;-59
2021/10/13 18:00:18;;;;;;;6.18;2.30;;;;;;;;;;10321961;28;20044;-60
2021/10/13 18:05:21;;;;;;;7.13;2.95;;;;;;;;;;10273221;28;20051;-61
2021/10/13 18:10:23;;;;;;;4.45;2.10;;;;;;;;;;10308798;28;20049;-59
2021/10/13 18:15:25;;;;;;;9.05;2.67;;;;;;;;;;10322125;28;20042;-60
2021/10/13 18:20:27;;;;;;;5.32;2.78;;;;;;;;;;10318719;28;20046;-62
2021/10/13 18:25:31;;;;;;;7.15;3.13;;;;;;;;;;10322856;28;20054;-60
2021/10/13 18:30:33;;;;;;;8.48;3.55;;;;;;;;;;10289909;28;20137;-61
2021/10/13 18:35:35;;;;;;;10.18;3.80;;;;;;;;;;10317432;28;20129;-59
2021/10/13 18:40:38;;;;;;;7.15;3.78;;;;;;;;;;10324235;28;20057;-59
2021/10/13 18:45:41;;;;;;;9.25;3.92;;;;;;;;;;10319164;28;20053;-58
2021/10/13 18:50:43;;;;;;;11.20;4.07;;;;;;;;;;10297885;28;20056;-58
2021/10/13 18:55:45;;;;;;;12.50;4.18;;;;;;;;;;10332522;28;20046;-57
2021/10/13 19:00:49;;;;;;;7.80;4.00;;;;;;;;;;10338514;28;20050;-58
2021/10/13 19:05:51;;;;;;;12.38;4.10;;;;;;;;;;10332594;28;20042;-57
2021/10/13 19:10:53;;;;;;;7.10;3.80;;;;;;;;;;10328008;28;20068;-59
2021/10/13 19:15:55;;;;;;;15.13;3.75;;;;;;;;;;10333845;28;20099;-57
2021/10/13 19:20:57;;;;;;;10.15;4.03;;;;;;;;;;10332851;28;20053;-57
2021/10/13 19:26:00;;;;;;;10.60;5.05;;;;;;;;;;10334216;28;20505;-57
2021/10/13 19:31:02;;;;;;;8.13;3.75;;;;;;;;;;10326699;28;20082;-57
2021/10/13 19:36:04;;;;;;;12.15;4.05;;;;;;;;;;10329230;28;20052;-58
2021/10/13 19:41:06;;;;;;;13.60;4.70;;;;;;;;;;10329456;28;20058;-59
2021/10/13 19:46:09;;;;;;;17.08;4.85;;;;;;;;;;10328330;28;20100;-58
2021/10/13 19:51:11;;;;;;;13.80;4.78;;;;;;;;;;10331579;28;20054;-57
2021/10/13 19:56:13;;;;;;;10.02;3.85;;;;;;;;;;10327706;28;20100;-58
2021/10/13 20:01:15;;;;;;;10.13;4.35;;;;;;;;;;10325838;28;20663;-57
2021/10/13 20:06:18;;;;;;;7.72;3.70;;;;;;;;;;10330303;28;20090;-60
2021/10/13 20:11:21;;;;;;;10.80;4.13;;;;;;;;;;10329255;28;20065;-58
2021/10/13 20:16:23;;;;;;;11.25;4.40;;;;;;;;;;10326868;28;20084;-60
2021/10/13 20:21:25;;;;;;;11.90;4.60;;;;;;;;;;10329348;28;20402;-56
2021/10/13 20:26:28;;;;;;;12.55;5.70;;;;;;;;;;10329635;28;20057;-59
2021/10/13 20:31:30;;;;;;;9.25;4.28;;;;;;;;;;10330758;28;20073;-60
2021/10/13 20:36:35;;;;;;;12.13;5.63;;;;;;;;;;10324406;28;20057;-60
2021/10/13 20:41:38;;;;;;;11.60;5.22;;;;;;;;;;10328057;28;20143;-57
2021/10/13 20:46:41;;;;;;;9.93;5.65;;;;;;;;;;10324036;28;20054;-60
2021/10/13 20:51:43;;;;;;;9.60;3.90;;;;;;;;;;10329973;28;20066;-57
2021/10/13 20:56:46;;;;;;;11.20;4.28;;;;;;;;;;10325439;28;20081;-56
2021/10/13 21:01:48;;;;;;;8.57;4.43;;;;;;;;;;10327367;28;20520;-58
2021/10/13 21:06:51;;;;;;;8.77;2.78;;;;;;;;;;10328780;28;20041;-58
2021/10/13 21:11:53;;;;;;;11.52;3.15;;;;;;;;;;10330831;28;20496;-60
2021/10/13 21:16:56;;;;;;;5.30;2.45;;;;;;;;;;10333336;28;20420;-60
2021/10/13 21:21:59;;;;;;;4.25;1.95;;;;;;;;;;10325043;28;20057;-59
2021/10/13 21:27:01;;;;;;;5.60;1.63;;;;;;;;;;10329818;28;20073;-60
2021/10/13 21:32:03;;;;;;;5.72;1.80;;;;;;;;;;10325259;28;20133;-60
2021/10/13 21:37:06;;;;;;;7.97;3.15;;;;;;;;;;10323894;28;20054;-60
2021/10/13 21:42:08;;;;;;;3.92;1.60;;;;;;;;;;10303256;28;20038;-60
2021/10/13 21:47:10;;;;;;;4.88;2.55;;;;;;;;;;10324981;28;20045;-60
2021/10/13 21:52:13;;;;;;;9.48;2.13;;;;;;;;;;10322764;28;20083;-58
2021/10/13 21:57:15;;;;;;;6.15;2.00;;;;;;;;;;10323288;28;20046;-58
2021/10/13 22:02:20;;;;;;;7.18;2.15;;;;;;;;;;10326264;28;20043;-59
2021/10/13 22:07:23;;;;;;;7.78;1.50;;;;;;;;;;10323367;28;20042;-59
2021/10/13 22:12:25;;;;;;;4.65;1.90;;;;;;;;;;10328177;28;20108;-58
2021/10/13 22:17:27;;;;;;;4.60;1.88;;;;;;;;;;10324731;28;20049;-58
2021/10/13 22:22:30;;;;;;;4.53;1.10;;;;;;;;;;10328855;28;21045;-60
2021/10/13 22:27:32;;;;;;;5.63;1.70;;;;;;;;;;10335807;28;20050;-58
2021/10/13 22:32:34;;;;;;;3.63;1.40;;;;;;;;;;10333690;28;20053;-58
2021/10/13 22:37:36;;;;;;;9.52;1.60;;;;;;;;;;10334057;28;20112;-58
2021/10/13 22:42:38;;;;;;;5.35;1.25;;;;;;;;;;10333239;28;20120;-57
2021/10/13 22:47:41;;;;;;;4.22;1.40;;;;;;;;;;10329553;28;20148;-58
2021/10/13 22:52:43;;;;;;;2.70;1.50;;;;;;;;;;10328291;28;20131;-58
2021/10/13 22:57:45;;;;;;;3.90;1.27;;;;;;;;;;10332695;28;20061;-58
2021/10/13 23:02:47;;;;;;;4.50;1.40;;;;;;;;;;10336249;28;20112;-58
2021/10/13 23:07:49;;;;;;;4.35;1.20;;;;;;;;;;10335262;28;20062;-58
2021/10/13 23:12:51;;;;;;;4.28;1.50;;;;;;;;;;10332823;28;20068;-59
2021/10/13 23:17:53;;;;;;;10.32;2.80;;;;;;;;;;10331594;28;20143;-58
2021/10/13 23:22:55;;;;;;;8.43;1.88;;;;;;;;;;10331935;28;20066;-58
2021/10/13 23:27:57;;;;;;;2.92;1.83;;;;;;;;;;10333021;28;20116;-58
2021/10/13 23:33:00;;;;;;;6.63;1.73;;;;;;;;;;10331937;28;20050;-58
2021/10/13 23:38:02;;;;;;;2.55;1.40;;;;;;;;;;10330621;28;20482;-58
2021/10/13 23:43:05;;;;;;;7.93;1.83;;;;;;;;;;10331432;28;20173;-58
2021/10/13 23:48:07;;;;;;;5.70;1.63;;;;;;;;;;10328747;28;20084;-58
2021/10/13 23:53:09;;;;;;;6.50;1.83;;;;;;;;;;10325469;28;20154;-58
2021/10/13 23:58:12;;;;;;;5.07;2.05;;;;;;;;;;10328160;28;20686;-58
